Wading River, New York
Current Conditions -  °F | °C
As of 1:56 AM on Saturday 20 Dec 2014 (Local Time) from KHWV Reporting Station
Overcast Overcast  
Wind Chill: 24°   Ceiling: 2900
Heat Index: 32°   Visibility: 10mi
Dew Point: 22°   Wind: 9mph
Humidity: 66%   Direction: 360°N
Pressure: 30.19"   Gusts: NA
Location:  40.95°N, 72.84°W
Report Text: KHWV 200656Z AUTO 36008KT 10SM OVC029 00/M06 A3019 RMK AO2 SLP223 T00001056 TSNO
Loading
Personal Weather Stations






























Interactive Weather Map New forecast layout! Learn more

10-Day Weather Forecast

Advertisements
Track Severe Weather on mobile